Time;durP1;ratioP1;P1;durP2;ratioP2;P2;SDS_P1;SDS_P2;PMS_P1;PMS_P2;Temp;Humidity;BMP_temperature;BMP_pressure;BME280_temperature;BME280_humidity;BME280_pressure;Samples;Min_cycle;Max_cycle;Signal;HPM_P1;HPM_P2
2024/03/03 00:03:59;;;;;;;1999.90;999.90;;;;;;;11.50;70.79;99804.69;10629835;27;20130;-64
2024/03/03 00:09:05;;;;;;;1999.90;999.90;;;;;;;11.36;70.70;99806.69;10630035;27;20047;-64
2024/03/03 00:14:07;;;;;;;1999.90;999.90;;;;;;;11.56;69.58;99803.34;10629486;27;20151;-64
2024/03/03 00:19:10;;;;;;;1999.90;999.90;;;;;;;11.56;69.84;99799.91;10629496;27;20047;-63
2024/03/03 00:24:12;;;;;;;1999.90;999.90;;;;;;;11.48;70.53;99803.97;10628405;27;20039;-64
2024/03/03 00:29:15;;;;;;;1999.90;999.90;;;;;;;11.15;71.89;99802.13;10629444;27;20047;-64
2024/03/03 00:34:17;;;;;;;1999.90;999.90;;;;;;;10.96;72.25;99794.81;10628408;27;20082;-63
2024/03/03 00:39:20;;;;;;;1999.90;999.90;;;;;;;11.09;72.86;99799.97;10628558;27;20496;-64
2024/03/03 00:44:22;;;;;;;1999.90;999.90;;;;;;;10.71;74.55;99794.03;10628431;27;20468;-64
2024/03/03 00:49:24;;;;;;;1999.90;999.90;;;;;;;10.72;74.99;99787.81;10628276;27;20126;-63
2024/03/03 00:54:27;;;;;;;1999.90;999.90;;;;;;;10.78;74.97;99782.16;10628037;27;20499;-65
2024/03/03 00:59:29;;;;;;;1999.90;999.90;;;;;;;10.39;76.32;99784.13;10628118;27;20089;-65
2024/03/03 01:04:32;;;;;;;1999.90;999.90;;;;;;;10.35;77.30;99785.28;10627419;27;20501;-65
2024/03/03 01:09:34;;;;;;;1999.90;999.90;;;;;;;10.23;78.27;99778.31;10627471;27;20078;-64
2024/03/03 01:14:36;;;;;;;1999.90;999.90;;;;;;;10.18;78.85;99777.81;10626817;27;20099;-65
2024/03/03 01:19:39;;;;;;;1999.90;999.90;;;;;;;10.64;76.90;99774.50;10626923;27;20075;-65
2024/03/03 01:24:42;;;;;;;1999.90;999.90;;;;;;;10.75;75.84;99769.28;10626514;27;20058;-65
2024/03/03 01:29:44;;;;;;;1999.90;999.90;;;;;;;10.77;76.68;99771.78;10626407;27;20423;-65
2024/03/03 01:34:46;;;;;;;1999.90;999.90;;;;;;;10.66;77.02;99767.34;10625421;27;20075;-65
2024/03/03 01:39:49;;;;;;;1999.90;999.90;;;;;;;10.45;78.77;99782.03;10625754;27;20047;-65
2024/03/03 01:44:51;;;;;;;1999.90;999.90;;;;;;;10.59;77.81;99781.81;10625635;27;20096;-65
2024/03/03 01:49:55;;;;;;;1999.90;999.90;;;;;;;10.39;78.53;99783.31;10625542;27;20086;-65
2024/03/03 01:54:58;;;;;;;1999.90;999.90;;;;;;;10.31;79.00;99767.31;10625095;27;20479;-65
2024/03/03 02:00:04;;;;;;;1999.90;999.90;;;;;;;10.34;78.55;99785.41;10624002;27;20082;-65
2024/03/03 02:05:08;;;;;;;1999.90;999.90;;;;;;;10.32;79.89;99787.28;10625502;27;20118;-65
2024/03/03 02:10:10;;;;;;;1999.90;999.90;;;;;;;10.40;78.82;99783.19;10623779;27;20043;-64
2024/03/03 02:15:13;;;;;;;1999.90;999.90;;;;;;;10.17;79.76;99773.50;10624508;27;20039;-65
2024/03/03 02:20:16;;;;;;;1999.90;999.90;;;;;;;9.78;81.21;99778.03;10623386;27;20047;-65
2024/03/03 02:25:19;;;;;;;1999.90;999.90;;;;;;;9.48;84.70;99781.81;10624140;27;20499;-65
2024/03/03 02:30:21;;;;;;;1999.90;999.90;;;;;;;9.89;81.96;99782.50;10623370;27;20050;-64
2024/03/03 02:35:23;;;;;;;1999.90;999.90;;;;;;;10.15;80.11;99785.88;10624072;27;20104;-65
2024/03/03 02:40:26;;;;;;;1999.90;999.90;;;;;;;9.88;81.81;99788.66;10623877;27;20053;-65
2024/03/03 02:45:28;;;;;;;1999.90;999.90;;;;;;;9.73;82.25;99791.41;10623730;27;20480;-65
2024/03/03 02:50:31;;;;;;;1999.90;999.90;;;;;;;9.79;83.00;99790.16;10623825;27;20050;-65
2024/03/03 02:55:33;;;;;;;1999.90;999.90;;;;;;;9.64;82.92;99786.84;10623554;28;20087;-65
2024/03/03 03:00:36;;;;;;;1999.90;999.90;;;;;;;9.40;83.90;99782.38;10623321;28;20142;-65
2024/03/03 03:05:38;;;;;;;1999.90;999.90;;;;;;;9.30;83.56;99784.75;10623604;27;20483;-65
2024/03/03 03:10:40;;;;;;;1999.90;999.90;;;;;;;9.29;84.98;99795.31;10440756;22;20506;-64
2024/03/03 03:15:43;;;;;;;1999.90;999.90;;;;;;;9.22;84.78;99794.06;10413041;28;20132;-64
2024/03/03 03:20:45;;;;;;;1999.90;999.90;;;;;;;8.78;86.39;99795.28;10414132;28;20049;-64
2024/03/03 03:25:48;;;;;;;1999.90;999.90;;;;;;;8.93;87.00;99796.88;10414452;28;20058;-64
2024/03/03 03:30:50;;;;;;;1999.90;999.90;;;;;;;8.26;90.28;99796.84;10414533;28;20064;-65
2024/03/03 03:35:52;;;;;;;1999.90;999.90;;;;;;;8.65;90.70;99796.06;10412756;28;20053;-65
2024/03/03 03:40:55;;;;;;;1999.90;999.90;;;;;;;8.22;93.86;99800.56;10413751;28;20050;-64
2024/03/03 03:45:57;;;;;;;1999.90;999.90;;;;;;;8.38;91.92;99804.69;10413709;28;20478;-64
2024/03/03 03:51:00;;;;;;;1999.90;999.90;;;;;;;8.23;92.76;99802.25;10413568;28;20046;-65
2024/03/03 03:56:02;;;;;;;1999.90;999.90;;;;;;;8.32;93.97;99793.81;10413612;28;20053;-65
2024/03/03 04:01:05;;;;;;;1999.90;999.90;;;;;;;8.30;91.85;99793.91;10420219;28;20556;-64
2024/03/03 04:06:07;;;;;;;1999.90;999.90;;;;;;;8.31;92.37;99785.16;10420843;28;20128;-64
2024/03/03 04:11:09;;;;;;;1999.90;999.90;;;;;;;8.29;92.20;99788.81;10420519;28;20050;-64
2024/03/03 04:16:12;;;;;;;1999.90;999.90;;;;;;;8.37;93.22;99802.19;10420370;28;20065;-65
2024/03/03 04:21:14;;;;;;;1999.90;999.90;;;;;;;8.42;91.71;99804.50;10420099;28;20403;-65
2024/03/03 04:26:17;;;;;;;1999.90;999.90;;;;;;;8.58;91.17;99812.22;10418798;28;20049;-65
2024/03/03 04:31:19;;;;;;;1999.90;999.90;;;;;;;8.50;88.49;99805.72;10419432;28;20045;-65
2024/03/03 04:36:21;;;;;;;1999.90;999.90;;;;;;;8.31;92.29;99810.41;10419508;28;20049;-65
2024/03/03 04:41:24;;;;;;;1999.90;999.90;;;;;;;8.12;94.89;99815.94;10419351;28;20112;-64
2024/03/03 04:46:26;;;;;;;1999.90;999.90;;;;;;;8.29;93.85;99813.13;10417851;28;20049;-64
2024/03/03 04:51:29;;;;;;;1999.90;999.90;;;;;;;8.18;93.29;99820.78;10417590;28;20478;-65
2024/03/03 04:56:31;;;;;;;1999.90;999.90;;;;;;;8.11;96.24;99825.53;10417733;28;20077;-64
2024/03/03 05:01:33;;;;;;;1999.90;999.90;;;;;;;8.23;94.87;99838.75;10418482;28;20049;-64
2024/03/03 05:06:45;;;;;;;1999.90;999.90;;;;;;;8.25;93.73;99847.31;10418227;28;20137;-65
2024/03/03 05:11:48;;;;;;;1999.90;999.90;;;;;;;7.98;96.89;99856.75;10416804;28;20132;-64
2024/03/03 05:16:51;;;;;;;1999.90;999.90;;;;;;;7.99;98.24;99866.25;10416767;28;20140;-65
2024/03/03 05:21:53;;;;;;;1999.90;999.90;;;;;;;8.06;93.52;99878.91;10417633;28;20053;-64
2024/03/03 05:26:56;;;;;;;1999.90;999.90;;;;;;;8.43;93.03;99874.88;10416270;28;20088;-65
2024/03/03 05:31:58;;;;;;;1999.90;999.90;;;;;;;8.38;93.18;99885.56;10417064;28;20410;-65
2024/03/03 05:37:01;;;;;;;1999.90;999.90;;;;;;;8.49;92.56;99899.72;10415861;28;20435;-64
2024/03/03 05:42:04;;;;;;;1999.90;999.90;;;;;;;8.81;88.40;99905.53;10417118;28;20549;-64
2024/03/03 05:47:06;;;;;;;1999.90;999.90;;;;;;;8.70;90.91;99902.75;10416667;28;20054;-65
2024/03/03 05:52:09;;;;;;;1999.90;999.90;;;;;;;8.86;89.85;99899.97;10416523;28;20129;-64
2024/03/03 05:57:13;;;;;;;1999.90;999.90;;;;;;;8.82;91.83;99916.78;10416447;28;20050;-64
2024/03/03 06:02:15;;;;;;;1999.90;999.90;;;;;;;8.46;96.53;99916.41;10416061;28;20045;-64
2024/03/03 06:07:18;;;;;;;1999.90;999.90;;;;;;;8.80;95.75;99916.06;10415975;28;20140;-64
2024/03/03 06:12:20;;;;;;;1999.90;999.90;;;;;;;8.87;92.25;99931.22;10415687;28;20128;-64
2024/03/03 06:17:23;;;;;;;1999.90;999.90;;;;;;;9.37;88.55;99923.63;10414209;28;20148;-64
2024/03/03 06:22:25;;;;;;;1999.90;999.90;;;;;;;9.33;90.96;99923.94;10415030;28;20559;-64
2024/03/03 06:27:28;;;;;;;1999.90;999.90;;;;;;;9.20;96.31;99929.16;10415437;28;20060;-64
2024/03/03 06:32:30;;;;;;;1999.90;999.90;;;;;;;9.08;99.26;99934.22;10415077;28;20512;-65
2024/03/03 06:37:34;;;;;;;1999.90;999.90;;;;;;;9.44;87.48;99937.97;10414839;28;20100;-64
2024/03/03 06:42:42;;;;;;;1999.90;999.90;;;;;;;9.07;98.33;99937.75;10413716;28;20132;-64
2024/03/03 06:47:44;;;;;;;1999.90;999.90;;;;;;;9.28;99.69;99929.50;10413479;28;20063;-64
2024/03/03 06:52:46;;;;;;;1999.90;999.90;;;;;;;9.11;97.75;99941.88;10414367;28;20046;-64
2024/03/03 06:57:49;;;;;;;1999.90;999.90;;;;;;;9.21;99.16;99955.16;10414611;28;20049;-64
2024/03/03 07:08:20;;;;;;;1999.90;999.90;;;;;;;9.41;95.76;99959.06;10383157;28;20140;-64
2024/03/03 07:13:22;;;;;;;1999.90;999.90;;;;;;;9.61;98.58;99957.75;10413958;28;20485;-64
2024/03/03 07:18:24;;;;;;;1999.90;999.90;;;;;;;9.52;99.90;99947.09;10414306;28;20405;-64
2024/03/03 07:23:27;;;;;;;1999.90;999.90;;;;;;;9.41;100.00;99960.84;10413853;28;20124;-64
2024/03/03 07:28:29;;;;;;;1999.90;999.90;;;;;;;9.44;100.00;99955.41;10412837;28;20099;-64
2024/03/03 07:33:31;;;;;;;1999.90;999.90;;;;;;;9.58;100.00;99957.13;10416782;28;20073;-65
2024/03/03 07:38:34;;;;;;;1999.90;999.90;;;;;;;9.60;100.00;99965.69;10421406;28;20103;-65
2024/03/03 07:43:36;;;;;;;1999.90;999.90;;;;;;;9.42;100.00;99949.47;10421556;28;20129;-65
2024/03/03 07:48:39;;;;;;;1999.90;999.90;;;;;;;10.00;100.00;99924.63;10421679;28;20058;-65
2024/03/03 07:53:42;;;;;;;1999.90;999.90;;;;;;;10.30;100.00;99930.44;10421601;28;20042;-65
2024/03/03 07:58:44;;;;;;;1999.90;999.90;;;;;;;10.10;100.00;99935.28;10419586;28;20476;-65
2024/03/03 08:03:46;;;;;;;1999.90;999.90;;;;;;;10.02;100.00;99940.22;10420703;28;20124;-65
2024/03/03 08:08:49;;;;;;;1999.90;999.90;;;;;;;10.23;100.00;99966.66;10418978;28;20407;-65
2024/03/03 08:13:51;;;;;;;1999.90;999.90;;;;;;;9.89;100.00;99996.91;10420591;28;20045;-65
2024/03/03 08:18:54;;;;;;;1999.90;999.90;;;;;;;9.87;100.00;100007.47;10420250;28;20512;-64
2024/03/03 08:23:57;;;;;;;1999.90;999.90;;;;;;;9.75;96.03;100009.13;10420089;28;20537;-63
2024/03/03 08:29:01;;;;;;;1999.90;999.90;;;;;;;10.85;91.28;99988.56;10418617;28;20053;-64
2024/03/03 08:34:03;;;;;;;1999.90;999.90;;;;;;;10.96;88.37;99950.19;10419304;28;20076;-64
2024/03/03 08:39:06;;;;;;;1999.90;999.90;;;;;;;11.92;87.32;99977.22;10419819;28;20065;-64
2024/03/03 08:44:09;;;;;;;1999.90;999.90;;;;;;;12.29;86.21;99981.41;10401252;28;20071;-64
2024/03/03 08:49:12;;;;;;;1999.90;999.90;;;;;;;12.35;84.25;99997.53;10418154;28;20049;-64
2024/03/03 08:54:14;;;;;;;1999.90;999.90;;;;;;;10.99;85.22;100016.38;10418707;28;20115;-64
2024/03/03 08:59:16;;;;;;;1999.90;999.90;;;;;;;10.91;85.55;100020.38;10418743;28;20054;-64
2024/03/03 09:04:19;;;;;;;1999.90;999.90;;;;;;;11.84;82.66;100011.03;10417542;28;20052;-64
2024/03/03 09:09:21;;;;;;;1999.90;999.90;;;;;;;11.52;82.37;99999.38;10417917;28;20464;-64
2024/03/03 09:14:24;;;;;;;1999.90;999.90;;;;;;;12.24;80.85;99995.75;10418041;28;20080;-64
2024/03/03 09:19:27;;;;;;;1999.90;999.90;;;;;;;13.04;78.11;99995.66;10418141;28;20072;-64
2024/03/03 09:24:29;;;;;;;1999.90;999.90;;;;;;;13.38;78.73;100006.94;10417820;28;20050;-64
2024/03/03 09:29:32;;;;;;;1999.90;999.90;;;;;;;13.17;77.61;100009.50;10418071;28;20095;-64
2024/03/03 09:34:34;;;;;;;1999.90;999.90;;;;;;;12.74;78.91;100021.66;10417353;28;20049;-64
2024/03/03 09:39:36;;;;;;;1999.90;999.90;;;;;;;12.85;78.77;100031.28;10416999;28;20482;-64
2024/03/03 09:44:44;;;;;;;1999.90;999.90;;;;;;;13.06;77.69;100014.78;10416990;28;20049;-64
2024/03/03 09:49:46;;;;;;;1999.90;999.90;;;;;;;13.33;76.69;100007.31;10415847;28;20053;-64
2024/03/03 09:54:50;;;;;;;1999.90;999.90;;;;;;;13.81;75.30;100010.47;10414502;28;20497;-64
2024/03/03 09:59:53;;;;;;;1999.90;999.90;;;;;;;14.94;75.70;100002.53;10415071;28;20418;-64
2024/03/03 10:04:58;;;;;;;1999.90;999.90;;;;;;;17.67;68.38;100008.75;10414906;28;20049;-64
2024/03/03 10:10:05;;;;;;;1999.90;999.90;;;;;;;18.07;63.59;100002.13;10415584;28;20057;-64
2024/03/03 10:15:08;;;;;;;1999.90;999.90;;;;;;;17.37;60.32;99999.41;10415968;28;20045;-64
2024/03/03 10:20:12;;;;;;;1999.90;999.90;;;;;;;19.61;58.10;99996.63;10414449;28;20057;-64
2024/03/03 10:25:15;;;;;;;1999.90;999.90;;;;;;;20.41;53.65;99976.41;10415732;28;20069;-64
2024/03/03 10:30:22;;;;;;;1999.90;999.90;;;;;;;22.84;53.37;99973.84;10415326;28;20046;-64
2024/03/03 10:35:25;;;;;;;1999.90;999.90;;;;;;;19.09;54.19;99984.47;10413945;28;20453;-64
2024/03/03 10:40:28;;;;;;;1999.90;999.90;;;;;;;18.87;57.36;99977.97;10415065;28;20481;-65
2024/03/03 10:45:30;;;;;;;1999.90;999.90;;;;;;;19.39;55.84;99962.78;10414745;28;20045;-65
2024/03/03 10:50:33;;;;;;;1999.90;999.90;;;;;;;20.55;52.67;99953.59;10414690;28;20081;-65
2024/03/03 10:55:35;;;;;;;1999.90;999.90;;;;;;;18.30;55.86;99973.25;10414264;28;20098;-64
2024/03/03 11:00:38;;;;;;;1999.90;999.90;;;;;;;17.63;56.90;99981.75;10413373;28;20494;-64
2024/03/03 11:05:42;;;;;;;1999.90;999.90;;;;;;;18.45;55.03;99973.47;10413371;28;20410;-65
2024/03/03 11:10:44;;;;;;;1999.90;999.90;;;;;;;17.66;55.24;99974.50;10422801;28;20084;-64
2024/03/03 11:15:48;;;;;;;1999.90;999.90;;;;;;;19.65;56.91;99979.38;10422763;28;20050;-64
2024/03/03 11:20:54;;;;;;;1999.90;999.90;;;;;;;21.63;51.96;99959.88;10421274;28;20061;-65
2024/03/03 11:26:15;;;;;;;1999.90;999.90;;;;;;;23.98;51.10;99935.63;10420978;28;20474;-65
2024/03/03 11:31:18;;;;;;;1999.90;999.90;;;;;;;23.01;46.25;99918.38;10404558;28;20136;-65
2024/03/03 11:36:21;;;;;;;1999.90;999.90;;;;;;;25.35;46.37;99923.13;10421839;28;20387;-65
2024/03/03 11:41:24;;;;;;;1999.90;999.90;;;;;;;25.37;46.01;99939.81;10420400;28;20084;-65
2024/03/03 11:46:49;;;;;;;1999.90;999.90;;;;;;;25.11;44.71;99927.19;10420469;28;20076;-65
2024/03/03 11:51:52;;;;;;;1999.90;999.90;;;;;;;26.00;42.33;99916.25;10420152;28;20494;-65
2024/03/03 11:56:59;;;;;;;1999.90;999.90;;;;;;;26.59;43.67;99917.84;10421241;28;20049;-65
2024/03/03 12:02:02;;;;;;;1999.90;999.90;;;;;;;23.86;43.36;99932.69;10419598;28;20136;-63
2024/03/03 12:07:06;;;;;;;1999.90;999.90;;;;;;;24.95;42.55;99925.75;10419374;28;20520;-64
2024/03/03 12:12:12;;;;;;;1999.90;999.90;;;;;;;24.93;41.41;99914.41;10419509;28;20045;-64
2024/03/03 12:17:14;;;;;;;1999.90;999.90;;;;;;;24.80;42.08;99909.03;10419897;28;20490;-64
2024/03/03 12:22:17;;;;;;;1999.90;999.90;;;;;;;25.46;40.60;99894.88;10418672;28;20124;-64
2024/03/03 12:27:19;;;;;;;1999.90;999.90;;;;;;;26.27;40.16;99884.78;10402379;28;20388;-64
2024/03/03 12:32:21;;;;;;;1999.90;999.90;;;;;;;24.30;39.48;99891.34;10418492;28;20077;-64
2024/03/03 12:37:25;;;;;;;1999.90;999.90;;;;;;;27.11;39.06;99892.78;10419687;28;20080;-64
2024/03/03 12:42:27;;;;;;;1999.90;999.90;;;;;;;26.02;40.22;99892.72;10419411;28;20069;-64
2024/03/03 12:47:29;;;;;;;1999.90;999.90;;;;;;;24.91;43.32;99897.72;10418075;28;20403;-64
2024/03/03 12:52:32;;;;;;;1999.90;999.90;;;;;;;23.40;41.89;99898.41;10417571;28;20084;-64
2024/03/03 12:57:36;;;;;;;1999.90;999.90;;;;;;;26.31;40.95;99904.81;10417850;28;20490;-64
2024/03/03 13:02:39;;;;;;;1999.90;999.90;;;;;;;25.65;39.24;99887.00;10417458;28;20088;-64
2024/03/03 13:07:49;;;;;;;1999.90;999.90;;;;;;;27.15;40.79;99893.97;10417259;28;20057;-64
2024/03/03 13:12:52;;;;;;;1999.90;999.90;;;;;;;26.05;40.67;99889.63;10417039;28;20045;-64
2024/03/03 13:18:14;;;;;;;1999.90;999.90;;;;;;;24.93;42.14;99894.84;10418259;28;20406;-64
2024/03/03 13:23:18;;;;;;;1999.90;999.90;;;;;;;24.35;40.47;99890.75;10416851;28;20120;-64
2024/03/03 13:28:20;;;;;;;1999.90;999.90;;;;;;;23.87;39.41;99904.09;10417793;28;20053;-64
2024/03/03 13:33:23;;;;;;;1999.90;999.90;;;;;;;25.47;38.74;99909.94;10416438;28;20045;-64
2024/03/03 13:38:26;;;;;;;1999.90;999.90;;;;;;;22.79;43.72;99898.88;10415873;28;20049;-64
2024/03/03 13:43:29;;;;;;;1999.90;999.90;;;;;;;25.50;41.14;99896.13;10415916;28;20048;-64
2024/03/03 13:48:33;;;;;;;1999.90;999.90;;;;;;;23.92;43.11;99907.84;10415627;28;20461;-65
2024/03/03 13:53:36;;;;;;;1999.90;999.90;;;;;;;23.25;44.88;99905.69;10416405;28;20379;-64
2024/03/03 13:58:39;;;;;;;1999.90;999.90;;;;;;;24.51;42.53;99902.97;10398666;28;20088;-64
2024/03/03 14:03:42;;;;;;;1999.90;999.90;;;;;;;25.50;39.54;99906.00;10415348;28;20099;-64
2024/03/03 14:08:44;;;;;;;1999.90;999.90;;;;;;;25.63;38.73;99914.03;10415827;28;20437;-64
2024/03/03 14:13:46;;;;;;;1999.90;999.90;;;;;;;25.96;36.94;99910.50;10415601;28;20394;-64
2024/03/03 14:18:49;;;;;;;1999.90;999.90;;;;;;;26.39;38.54;99917.94;10415692;28;20124;-63
2024/03/03 14:23:52;;;;;;;1999.90;999.90;;;;;;;28.41;36.60;99909.88;10415619;28;20099;-63
2024/03/03 14:28:55;;;;;;;1999.90;999.90;;;;;;;26.75;37.21;99921.09;10415420;28;20115;-64
2024/03/03 14:33:57;;;;;;;1999.90;999.90;;;;;;;23.37;39.90;99923.69;10414952;28;20096;-64
2024/03/03 14:39:00;;;;;;;1999.90;999.90;;;;;;;23.98;40.98;99937.50;10416122;28;20068;-64
2024/03/03 14:44:02;;;;;;;1999.90;999.90;;;;;;;27.36;34.22;99935.81;10414978;28;20048;-64
2024/03/03 14:49:05;;;;;;;1999.90;999.90;;;;;;;28.90;34.55;99941.13;10415045;28;20094;-64
2024/03/03 14:54:07;;;;;;;1999.90;999.90;;;;;;;28.94;32.77;99943.38;10397318;28;20104;-64
2024/03/03 14:59:14;;;;;;;1999.90;999.90;;;;;;;25.52;39.62;99955.69;10413343;28;20099;-64
2024/03/03 15:04:17;;;;;;;1999.90;999.90;;;;;;;22.79;42.68;99955.72;10397108;28;20516;-64
2024/03/03 15:09:20;;;;;;;1999.90;999.90;;;;;;;24.97;39.79;99949.63;10414495;28;20064;-64
2024/03/03 15:14:22;;;;;;;1999.90;999.90;;;;;;;23.84;39.83;99948.09;10412980;28;20458;-64
2024/03/03 15:19:24;;;;;;;1999.90;999.90;;;;;;;21.87;44.23;99966.81;10414389;28;20129;-64
2024/03/03 15:24:27;;;;;;;1999.90;999.90;;;;;;;20.54;49.10;99976.69;10429597;22;20058;-69
2024/03/03 15:29:29;;;;;;;1999.90;999.90;;;;;;;19.17;49.71;99988.97;10413909;28;20056;-70
2024/03/03 15:34:32;;;;;;;1999.90;999.90;;;;;;;18.71;51.71;99997.28;10413783;28;20056;-70
2024/03/03 15:39:34;;;;;;;1999.90;999.90;;;;;;;17.78;52.97;99997.88;10413066;28;20473;-70
2024/03/03 15:44:40;;;;;;;1999.90;999.90;;;;;;;18.28;52.28;100004.38;10412731;28;20045;-70
2024/03/03 15:49:43;;;;;;;1999.90;999.90;;;;;;;17.72;53.50;99997.66;10412627;28;20077;-70
2024/03/03 15:54:45;;;;;;;1999.90;999.90;;;;;;;17.39;53.77;100010.66;10417000;28;20095;-69
2024/03/03 15:59:48;;;;;;;1999.90;999.90;;;;;;;17.83;56.38;100016.78;10421021;28;20095;-69
2024/03/03 16:04:50;;;;;;;1999.90;999.90;;;;;;;16.72;54.71;100024.94;10403524;28;20049;-69
2024/03/03 16:09:53;;;;;;;1999.90;999.90;;;;;;;16.33;55.65;100027.75;10420837;28;20103;-69
2024/03/03 16:14:55;;;;;;;1999.90;999.90;;;;;;;16.31;56.58;100036.81;10420986;28;20045;-69
2024/03/03 16:19:57;;;;;;;1999.90;999.90;;;;;;;16.12;56.58;100041.16;10402836;28;20077;-69
2024/03/03 16:25:00;;;;;;;1999.90;999.90;;;;;;;15.58;58.31;100032.88;10418686;28;20053;-69
2024/03/03 16:30:03;;;;;;;1999.90;999.90;;;;;;;15.41;58.86;100037.00;10418932;28;20060;-69
2024/03/03 16:35:07;;;;;;;1999.90;999.90;;;;;;;15.34;59.55;100038.53;10419809;28;20080;-69
2024/03/03 16:40:10;;;;;;;1999.90;999.90;;;;;;;15.23;59.88;100047.41;10419992;28;20060;-70
2024/03/03 16:45:12;;;;;;;1999.90;999.90;;;;;;;14.87;60.89;100056.75;10419432;28;20041;-69
2024/03/03 16:50:15;;;;;;;1999.90;999.90;;;;;;;14.63;61.87;100060.53;10419108;28;20049;-69
2024/03/03 16:55:21;;;;;;;1999.90;999.90;;;;;;;14.75;60.75;100053.38;10419016;28;20084;-71
2024/03/03 17:00:23;;;;;;;1999.90;999.90;;;;;;;14.36;62.35;100063.72;10401684;28;20075;-72
2024/03/03 17:05:26;;;;;;;1999.90;999.90;;;;;;;14.03;63.93;100076.09;10417373;28;20103;-71
2024/03/03 17:10:28;;;;;;;1999.90;999.90;;;;;;;14.03;64.03;100068.22;10417229;28;20085;-71
2024/03/03 17:15:31;;;;;;;1999.90;999.90;;;;;;;13.64;65.36;100075.00;10418417;28;20053;-71
2024/03/03 17:20:33;;;;;;;1999.90;999.90;;;;;;;13.48;65.98;100086.75;10418150;28;20049;-71
2024/03/03 17:25:35;;;;;;;1999.90;999.90;;;;;;;13.56;65.72;100081.69;10417616;28;20082;-71
2024/03/03 17:30:38;;;;;;;1999.90;999.90;;;;;;;13.37;67.19;100098.13;10417694;28;20053;-71
2024/03/03 17:35:41;;;;;;;1999.90;999.90;;;;;;;13.16;67.28;100102.44;10416076;28;20132;-71
2024/03/03 17:40:43;;;;;;;1999.90;999.90;;;;;;;13.26;67.85;100115.69;10417339;28;20077;-71
2024/03/03 17:45:46;;;;;;;1999.90;999.90;;;;;;;13.05;67.91;100112.97;10415651;28;20092;-71
2024/03/03 17:50:48;;;;;;;1999.90;999.90;;;;;;;12.89;68.85;100123.84;10415887;28;20058;-71
2024/03/03 17:55:51;;;;;;;1999.90;999.90;;;;;;;13.00;69.94;100132.53;10415473;28;20124;-71
2024/03/03 18:00:54;;;;;;;1999.90;999.90;;;;;;;12.85;69.96;100143.44;10398813;28;20049;-71
2024/03/03 18:05:57;;;;;;;1999.90;999.90;;;;;;;12.83;69.50;100154.88;10416259;28;20049;-71
2024/03/03 18:11:00;;;;;;;1999.90;999.90;;;;;;;12.44;71.12;100159.59;10416138;28;20046;-72
2024/03/03 18:16:05;;;;;;;1999.90;999.90;;;;;;;12.58;70.82;100170.84;10415411;28;20486;-73
2024/03/03 18:21:07;;;;;;;1999.90;999.90;;;;;;;12.74;70.78;100174.00;10414188;28;20056;-73
2024/03/03 18:26:10;;;;;;;1999.90;999.90;;;;;;;12.38;72.14;100186.31;10413995;28;20137;-73
2024/03/03 18:31:14;;;;;;;1999.90;999.90;;;;;;;12.48;71.66;100194.34;10414092;28;20450;-74
2024/03/03 18:36:18;;;;;;;1999.90;999.90;;;;;;;12.28;72.44;100198.44;10414022;28;20056;-74
2024/03/03 18:41:20;;;;;;;1999.90;999.90;;;;;;;12.09;73.19;100196.34;10414117;28;20164;-73
2024/03/03 18:46:24;;;;;;;1999.90;999.90;;;;;;;12.15;73.81;100205.53;10413560;28;20055;-74
2024/03/03 18:51:27;;;;;;;1999.90;999.90;;;;;;;12.15;73.78;100208.16;10413524;28;20075;-73
2024/03/03 18:56:29;;;;;;;1999.90;999.90;;;;;;;12.25;74.53;100209.16;10397063;28;20103;-73
2024/03/03 19:01:32;;;;;;;1999.90;999.90;;;;;;;12.00;75.12;100218.00;10412926;28;20507;-73
2024/03/03 19:06:35;;;;;;;1999.90;999.90;;;;;;;11.81;76.72;100232.41;10414574;28;20045;-73
2024/03/03 19:11:37;;;;;;;1999.90;999.90;;;;;;;12.05;76.83;100232.47;10414114;28;20472;-73
2024/03/03 19:16:40;;;;;;;1999.90;999.90;;;;;;;11.75;77.51;100239.88;10413293;28;20052;-73
2024/03/03 19:21:42;;;;;;;1999.90;999.90;;;;;;;11.99;76.30;100239.94;10412744;28;20080;-73
2024/03/03 19:26:45;;;;;;;1999.90;999.90;;;;;;;12.05;76.44;100248.22;10415212;28;20050;-73
2024/03/03 19:31:47;;;;;;;1999.90;999.90;;;;;;;11.65;77.52;100255.41;10422177;28;20124;-74
2024/03/03 19:36:50;;;;;;;1999.90;999.90;;;;;;;11.47;79.38;100268.03;10421925;28;20050;-73
2024/03/03 19:41:52;;;;;;;1999.90;999.90;;;;;;;11.61;78.17;100274.94;10422014;28;20132;-73
2024/03/03 19:46:55;;;;;;;1999.90;999.90;;;;;;;11.36;80.02;100281.03;10421518;28;20050;-73
2024/03/03 19:51:58;;;;;;;1999.90;999.90;;;;;;;11.26;80.91;100286.06;10420366;28;20081;-73
2024/03/03 19:57:03;;;;;;;1999.90;999.90;;;;;;;11.47;81.72;100300.31;10420921;28;20480;-73
2024/03/03 20:02:05;;;;;;;1999.90;999.90;;;;;;;11.07;85.98;100300.41;10419959;28;20196;-73
2024/03/03 20:07:10;;;;;;;1999.90;999.90;;;;;;;11.02;88.94;100315.59;10420826;28;20050;-73
2024/03/03 20:12:13;;;;;;;1999.90;999.90;;;;;;;10.75;89.56;100320.91;10420697;28;20100;-73
2024/03/03 20:17:16;;;;;;;1999.90;999.90;;;;;;;10.61;90.42;100324.44;10420265;28;20563;-73
2024/03/03 20:22:19;;;;;;;1999.90;999.90;;;;;;;10.59;91.70;100340.25;10419097;28;20060;-73
2024/03/03 20:27:21;;;;;;;1999.90;999.90;;;;;;;10.31;95.11;100345.53;10420173;28;20053;-72
2024/03/03 20:32:24;;;;;;;1999.90;999.90;;;;;;;9.95;98.10;100345.13;10419906;28;20099;-73
2024/03/03 20:37:27;;;;;;;1999.90;999.90;;;;;;;10.29;96.59;100356.09;10402380;28;20104;-72
2024/03/03 20:42:33;;;;;;;1999.90;999.90;;;;;;;10.05;97.14;100361.06;10419232;28;20092;-74
2024/03/03 20:47:39;;;;;;;1999.90;999.90;;;;;;;9.89;97.48;100366.41;10419122;28;20100;-72
2024/03/03 20:52:41;;;;;;;1999.90;999.90;;;;;;;10.02;99.13;100375.19;10418289;28;20053;-73
2024/03/03 20:57:44;;;;;;;1999.90;999.90;;;;;;;9.94;97.62;100380.06;10417747;28;20049;-73
2024/03/03 21:02:46;;;;;;;1999.90;999.90;;;;;;;9.82;98.74;100386.88;10418913;28;20056;-73
2024/03/03 21:07:49;;;;;;;1999.90;999.90;;;;;;;9.79;98.86;100400.13;10418599;28;20124;-72
2024/03/03 21:12:51;;;;;;;1999.90;999.90;;;;;;;9.94;97.92;100394.91;10416935;28;20403;-72
2024/03/03 21:17:54;;;;;;;1999.90;999.90;;;;;;;10.21;96.58;100401.03;10416680;28;20049;-73
2024/03/03 21:22:56;;;;;;;1999.90;999.90;;;;;;;9.72;98.04;100406.66;10418076;28;20049;-72
2024/03/03 21:27:58;;;;;;;1999.90;999.90;;;;;;;9.55;99.52;100414.66;10417667;28;20071;-73
2024/03/03 21:33:01;;;;;;;1999.90;999.90;;;;;;;9.70;100.00;100416.38;10416151;28;20071;-72
2024/03/03 21:38:04;;;;;;;1999.90;999.90;;;;;;;9.79;100.00;100415.81;10417215;28;20092;-72
2024/03/03 21:43:10;;;;;;;1999.90;999.90;;;;;;;9.67;100.00;100424.41;10415984;28;20077;-72
2024/03/03 21:48:13;;;;;;;1999.90;999.90;;;;;;;9.63;100.00;100433.34;10416132;28;20553;-73
2024/03/03 21:53:16;;;;;;;1999.90;999.90;;;;;;;9.74;100.00;100433.53;10415878;28;20050;-72
2024/03/03 21:58:21;;;;;;;1999.90;999.90;;;;;;;9.53;100.00;100435.69;10415320;28;20049;-72
2024/03/03 22:03:23;;;;;;;1999.90;999.90;;;;;;;9.36;100.00;100433.19;10416334;28;20107;-72
2024/03/03 22:08:26;;;;;;;1999.90;999.90;;;;;;;9.09;100.00;100444.28;10416208;28;20418;-72
2024/03/03 22:13:28;;;;;;;1999.90;999.90;;;;;;;9.40;100.00;100450.38;10415121;28;20115;-73